createdAt,value
2022-12-18T00:00:59.288Z,78.29
2022-12-18T00:04:07.737Z,77.79
2022-12-18T00:07:10.517Z,77.39
2022-12-18T00:10:15.488Z,76.41
2022-12-18T00:13:18.360Z,76.70
2022-12-18T00:16:23.404Z,76.44
2022-12-18T00:19:26.375Z,76.47
2022-12-18T00:22:29.035Z,75.88
2022-12-18T00:25:34.538Z,76.92
2022-12-18T00:28:37.616Z,77.22
2022-12-18T00:31:43.243Z,77.46
2022-12-18T00:34:47.915Z,77.66
2022-12-18T00:37:51.446Z,77.91
2022-12-18T00:40:54.246Z,78.26
2022-12-18T00:43:56.691Z,77.43
2022-12-18T00:46:59.574Z,77.77
2022-12-18T00:50:02.249Z,78.26
2022-12-18T00:53:05.211Z,78.85
2022-12-18T00:56:08.114Z,79.63
2022-12-18T00:59:10.829Z,79.64
2022-12-18T01:02:15.075Z,80.21
2022-12-18T01:05:19.578Z,80.01
2022-12-18T01:08:22.246Z,81.23
2022-12-18T01:11:25.300Z,82.46
2022-12-18T01:14:28.122Z,82.03
2022-12-18T01:17:31.030Z,80.38
2022-12-18T01:20:33.891Z,80.73
2022-12-18T01:23:37.018Z,81.03
2022-12-18T01:26:39.957Z,81.14
2022-12-18T01:29:43.647Z,81.14
2022-12-18T01:32:46.130Z,81.30
2022-12-18T01:35:48.970Z,81.67
2022-12-18T01:38:52.889Z,81.81
2022-12-18T01:42:05.293Z,81.46
2022-12-18T01:45:16.462Z,81.77
2022-12-18T01:48:19.973Z,82.13
2022-12-18T01:51:23.063Z,82.45
2022-12-18T01:54:25.857Z,82.27
2022-12-18T01:57:29.743Z,81.51
2022-12-18T02:00:32.856Z,81.42
2022-12-18T02:03:35.515Z,81.52
2022-12-18T02:06:42.401Z,82.42
2022-12-18T02:09:52.103Z,81.66
2022-12-18T02:13:20.062Z,81.14
2022-12-18T02:16:47.189Z,80.75
2022-12-18T02:20:08.114Z,81.66
2022-12-18T02:23:31.660Z,81.97
2022-12-18T02:26:44.846Z,81.69
2022-12-18T02:29:58.988Z,82.03
2022-12-18T02:33:08.158Z,82.36
2022-12-18T02:36:13.999Z,83.79
2022-12-18T02:39:19.323Z,83.65
2022-12-18T02:42:33.827Z,84.06
2022-12-18T02:45:48.085Z,85.12
2022-12-18T02:48:53.765Z,85.22
2022-12-18T02:52:20.647Z,84.17
2022-12-18T02:55:49.935Z,84.96
2022-12-18T02:59:03.968Z,85.17
2022-12-18T03:02:25.785Z,83.82
2022-12-18T03:05:37.443Z,84.18
2022-12-18T03:08:44.963Z,85.48
2022-12-18T03:12:13.705Z,85.70
2022-12-18T03:15:31.775Z,85.28
2022-12-18T03:18:58.537Z,85.20
2022-12-18T03:22:04.973Z,86.10
2022-12-18T03:25:20.117Z,86.68
2022-12-18T03:28:23.979Z,86.51
2022-12-18T03:31:37.055Z,85.30
2022-12-18T03:34:43.471Z,85.71
2022-12-18T03:37:49.553Z,86.85
2022-12-18T03:41:03.284Z,87.39
2022-12-18T03:44:17.546Z,87.26
2022-12-18T03:47:30.064Z,87.46
2022-12-18T03:51:02.861Z,87.57
2022-12-18T03:54:07.947Z,87.19
2022-12-18T03:57:24.298Z,87.08
2022-12-18T04:00:31.464Z,87.21
2022-12-18T04:03:43.932Z,88.03
2022-12-18T04:06:50.240Z,87.66
2022-12-18T04:09:57.759Z,87.45
2022-12-18T04:13:00.668Z,87.65
2022-12-18T04:16:04.766Z,87.64
2022-12-18T04:19:08.050Z,87.69
2022-12-18T04:22:16.079Z,88.19
2022-12-18T04:25:22.871Z,89.01
2022-12-18T04:28:42.647Z,88.56
2022-12-18T04:31:45.829Z,88.81
2022-12-18T04:34:48.571Z,89.02
2022-12-18T04:37:54.274Z,89.72
2022-12-18T04:40:57.912Z,88.67
2022-12-18T04:44:02.940Z,88.22
2022-12-18T04:47:05.655Z,88.36
2022-12-18T04:50:08.560Z,88.88
2022-12-18T04:53:11.439Z,88.77
2022-12-18T04:56:15.725Z,89.77
2022-12-18T04:59:18.338Z,89.28
2022-12-18T05:02:21.370Z,89.52
2022-12-18T05:05:24.029Z,89.48
2022-12-18T05:08:27.028Z,89.45
2022-12-18T05:11:29.910Z,89.86
2022-12-18T05:14:32.349Z,90.70
2022-12-18T05:17:35.070Z,90.81
2022-12-18T05:20:37.630Z,90.82
2022-12-18T05:23:41.055Z,90.40
2022-12-18T05:26:44.088Z,90.36
2022-12-18T05:29:46.755Z,89.90
2022-12-18T05:32:49.403Z,89.80
2022-12-18T05:35:57.458Z,89.36
2022-12-18T05:39:01.287Z,89.44
2022-12-18T05:42:04.218Z,89.15
2022-12-18T05:45:07.284Z,88.89
2022-12-18T05:48:13.234Z,88.71
2022-12-18T05:51:17.774Z,87.28
2022-12-18T05:54:20.484Z,86.80
2022-12-18T05:57:23.126Z,87.42
2022-12-18T06:00:25.987Z,87.33
2022-12-18T06:03:33.714Z,87.09
2022-12-18T06:06:36.962Z,87.42
2022-12-18T06:09:39.880Z,87.79
2022-12-18T06:12:42.756Z,87.86
2022-12-18T06:15:45.217Z,88.65
2022-12-18T06:18:48.270Z,88.88
2022-12-18T06:21:51.781Z,89.34
2022-12-18T06:24:54.767Z,89.73
2022-12-18T06:27:57.614Z,89.35
2022-12-18T06:31:00.828Z,88.93
2022-12-18T06:34:05.007Z,89.40
2022-12-18T06:37:07.868Z,89.70
2022-12-18T06:40:10.792Z,89.80
2022-12-18T06:43:13.796Z,89.60
2022-12-18T06:46:16.496Z,89.83
2022-12-18T06:49:19.391Z,89.69
2022-12-18T06:52:21.918Z,89.55
2022-12-18T06:55:24.771Z,89.77
2022-12-18T06:58:29.675Z,89.34
2022-12-18T07:01:32.577Z,88.93
2022-12-18T07:04:55.607Z,88.36
2022-12-18T07:07:59.372Z,87.74
2022-12-18T07:11:05.360Z,87.99
2022-12-18T07:14:08.143Z,87.26
2022-12-18T07:17:10.958Z,87.43
2022-12-18T07:20:14.204Z,87.26
2022-12-18T07:23:16.865Z,86.10
2022-12-18T07:26:21.537Z,83.48
2022-12-18T07:29:24.766Z,83.09
2022-12-18T07:32:30.550Z,82.79
2022-12-18T07:35:43.442Z,81.92
2022-12-18T07:38:49.468Z,81.98
2022-12-18T07:42:10.820Z,81.12
2022-12-18T07:45:16.732Z,81.08
2022-12-18T07:48:19.431Z,81.43
2022-12-18T07:51:22.592Z,79.58
2022-12-18T07:54:25.928Z,77.89
2022-12-18T08:00:51.883Z,77.98
2022-12-18T08:03:54.520Z,77.76
2022-12-18T08:06:57.390Z,78.46
2022-12-18T08:09:59.930Z,78.36
2022-12-18T08:13:05.151Z,77.39
2022-12-18T08:16:08.751Z,78.42
2022-12-18T08:19:11.488Z,77.58
2022-12-18T08:22:14.487Z,78.52
2022-12-18T08:25:17.132Z,76.86
2022-12-18T08:28:20.296Z,76.04
2022-12-18T08:31:23.624Z,74.79
2022-12-18T08:34:27.275Z,74.59
2022-12-18T08:37:30.313Z,72.33
2022-12-18T08:40:33.223Z,68.14
2022-12-18T08:43:54.986Z,65.23
2022-12-18T08:46:57.836Z,67.21
2022-12-18T08:50:00.260Z,68.41
2022-12-18T08:53:03.485Z,71.29
2022-12-18T08:56:06.575Z,71.07
2022-12-18T08:59:15.787Z,72.14
2022-12-18T09:02:21.767Z,71.91
2022-12-18T09:05:24.675Z,71.43
2022-12-18T09:08:28.020Z,73.24
2022-12-18T09:11:31.701Z,71.36
2022-12-18T09:14:34.391Z,72.17
2022-12-18T09:17:37.401Z,72.07
2022-12-18T09:20:40.419Z,71.65
2022-12-18T09:23:43.668Z,72.53
2022-12-18T09:26:47.319Z,71.39
2022-12-18T09:29:50.879Z,73.13
2022-12-18T09:32:54.991Z,72.47
2022-12-18T09:35:57.751Z,71.99
2022-12-18T09:39:04.987Z,73.12
2022-12-18T09:42:21.808Z,74.28
2022-12-18T09:45:25.176Z,71.62
2022-12-18T09:48:38.455Z,73.22
2022-12-18T09:51:48.268Z,72.61
2022-12-18T09:55:09.847Z,72.78
2022-12-18T09:58:25.451Z,72.10
2022-12-18T10:01:38.948Z,73.12
2022-12-18T10:04:58.115Z,73.19
2022-12-18T10:08:12.931Z,72.46
2022-12-18T10:11:53.227Z,73.56
2022-12-18T10:15:24.641Z,73.17
2022-12-18T10:18:45.217Z,74.68
2022-12-18T10:22:18.059Z,72.40
2022-12-18T10:25:35.342Z,75.12
2022-12-18T10:28:41.111Z,76.60
2022-12-18T10:31:44.178Z,74.53
2022-12-18T10:34:48.979Z,74.46
2022-12-18T10:38:22.734Z,74.66
2022-12-18T10:41:33.183Z,73.50
2022-12-18T10:44:35.906Z,75.13
2022-12-18T10:47:44.658Z,75.20
2022-12-18T10:54:20.666Z,74.77
2022-12-18T10:57:34.759Z,73.24
2022-12-18T11:00:38.288Z,73.37
2022-12-18T11:03:43.630Z,71.72
2022-12-18T11:07:02.770Z,73.01
2022-12-18T11:10:06.897Z,73.53
2022-12-18T11:13:17.943Z,74.57
2022-12-18T11:16:21.267Z,74.00
2022-12-18T11:19:38.259Z,70.67
2022-12-18T11:22:41.228Z,74.61
2022-12-18T11:25:53.573Z,72.79
2022-12-18T11:29:11.300Z,70.47
2022-12-18T11:32:37.223Z,68.96
2022-12-18T11:35:53.439Z,70.79
2022-12-18T11:38:58.755Z,71.05
2022-12-18T11:42:12.780Z,71.87
2022-12-18T11:45:25.000Z,71.61
2022-12-18T11:48:40.312Z,71.96
2022-12-18T11:51:53.443Z,72.93
2022-12-18T11:55:00.982Z,72.10
2022-12-18T11:58:09.674Z,71.71
2022-12-18T12:01:18.095Z,71.27
2022-12-18T12:05:02.399Z,72.29
2022-12-18T12:08:46.560Z,71.97
2022-12-18T12:11:52.190Z,71.98
2022-12-18T12:15:14.412Z,72.02
2022-12-18T12:18:28.082Z,71.27
2022-12-18T12:21:39.719Z,71.77
2022-12-18T12:24:51.319Z,72.99
2022-12-18T12:28:19.747Z,72.58
2022-12-18T12:31:44.415Z,70.76
2022-12-18T12:35:10.189Z,72.33
2022-12-18T12:38:16.327Z,73.23
2022-12-18T12:41:42.136Z,72.42
2022-12-18T12:44:56.334Z,72.66
2022-12-18T12:48:02.539Z,71.35
2022-12-18T12:51:15.024Z,71.01
2022-12-18T12:54:24.584Z,70.38
2022-12-18T12:57:41.510Z,68.45
2022-12-18T13:01:02.708Z,66.94
2022-12-18T13:04:19.796Z,65.83
2022-12-18T13:07:33.491Z,65.24
2022-12-18T13:10:43.348Z,64.23
2022-12-18T13:13:51.496Z,60.78
2022-12-18T13:17:20.374Z,60.25
2022-12-18T13:20:33.516Z,60.06
2022-12-18T13:23:41.258Z,61.51
2022-12-18T13:26:44.481Z,61.42
2022-12-18T13:29:48.392Z,63.25
2022-12-18T13:33:21.758Z,63.59
2022-12-18T13:36:31.584Z,65.52
2022-12-18T13:39:36.082Z,66.00
2022-12-18T13:42:59.753Z,67.99
2022-12-18T13:46:06.895Z,67.40
2022-12-18T13:49:36.067Z,69.00
2022-12-18T13:52:41.415Z,68.77
2022-12-18T13:55:46.515Z,68.93
2022-12-18T13:59:27.929Z,69.79
2022-12-18T14:02:31.657Z,69.05
2022-12-18T14:05:38.697Z,71.75
2022-12-18T14:08:46.176Z,72.87
2022-12-18T14:11:54.943Z,71.83
2022-12-18T14:14:59.410Z,73.11
2022-12-18T14:18:15.358Z,72.61
2022-12-18T14:21:31.575Z,73.07
2022-12-18T14:24:36.316Z,72.47
2022-12-18T14:27:45.582Z,74.27
2022-12-18T14:34:05.568Z,74.20
2022-12-18T14:37:12.773Z,74.19
2022-12-18T14:40:15.752Z,74.93
2022-12-18T14:50:04.915Z,76.30
2022-12-18T14:53:32.927Z,76.82
2022-12-18T14:56:48.413Z,76.82
2022-12-18T15:03:19.660Z,77.56
2022-12-18T15:06:32.448Z,78.16
2022-12-18T15:09:36.814Z,78.14
2022-12-18T15:13:14.259Z,78.63
2022-12-18T15:16:22.511Z,80.13
2022-12-18T15:23:03.891Z,79.94
2022-12-18T15:29:30.003Z,80.45
2022-12-18T15:36:15.740Z,80.08
2022-12-18T15:43:18.994Z,82.55
2022-12-18T15:46:28.779Z,82.36
2022-12-18T15:49:33.963Z,83.17
2022-12-18T15:52:50.235Z,83.54
2022-12-18T16:02:50.953Z,83.87
2022-12-18T16:12:44.404Z,85.02
2022-12-18T16:19:15.872Z,85.68
2022-12-18T16:28:58.245Z,84.67
2022-12-18T16:35:23.640Z,84.27
2022-12-18T16:38:33.978Z,84.26
2022-12-18T16:54:56.807Z,85.67
2022-12-18T16:58:00.477Z,84.83
2022-12-18T17:01:08.738Z,85.01
2022-12-18T17:04:11.762Z,85.08
2022-12-18T17:07:17.046Z,84.85
2022-12-18T17:10:20.065Z,84.85
2022-12-18T17:13:26.655Z,85.34
2022-12-18T17:16:29.602Z,85.43
2022-12-18T17:19:32.386Z,85.42
2022-12-18T17:22:35.259Z,86.84
2022-12-18T17:25:40.429Z,86.25
2022-12-18T17:28:43.704Z,88.11
2022-12-18T17:31:47.449Z,87.41
2022-12-18T17:34:50.503Z,87.64
2022-12-18T17:37:53.383Z,86.46
2022-12-18T17:41:02.521Z,85.93
2022-12-18T17:44:05.996Z,85.68
2022-12-18T17:47:12.291Z,85.43
2022-12-18T17:50:16.346Z,86.33
2022-12-18T17:53:19.191Z,86.36
2022-12-18T17:56:23.805Z,86.73
2022-12-18T17:59:26.382Z,88.08
2022-12-18T18:02:29.050Z,88.39
2022-12-18T18:05:33.306Z,88.51
2022-12-18T18:08:37.245Z,87.45
2022-12-18T18:11:59.147Z,87.56
2022-12-18T18:15:01.976Z,88.92
2022-12-18T18:18:05.515Z,89.99
2022-12-18T18:21:09.137Z,90.50
2022-12-18T18:24:14.782Z,90.83
2022-12-18T18:27:17.902Z,90.72
2022-12-18T18:30:20.859Z,90.30
2022-12-18T18:33:24.058Z,89.52
2022-12-18T18:36:27.530Z,88.42
2022-12-18T18:39:30.464Z,88.88
2022-12-18T18:42:33.636Z,89.18
2022-12-18T18:45:36.208Z,88.53
2022-12-18T18:48:41.662Z,89.23
2022-12-18T18:51:46.607Z,89.47
2022-12-18T18:55:11.565Z,88.73
2022-12-18T18:58:12.623Z,88.82
2022-12-18T19:01:20.481Z,89.82
2022-12-18T19:04:23.477Z,89.36
2022-12-18T19:07:30.957Z,89.24
2022-12-18T19:10:33.852Z,88.79
2022-12-18T19:13:37.139Z,88.63
2022-12-18T19:16:40.290Z,88.00
2022-12-18T19:19:43.666Z,87.59
2022-12-18T19:22:54.365Z,87.08
2022-12-18T19:26:26.894Z,86.76
2022-12-18T19:29:26.799Z,84.92
2022-12-18T19:32:31.708Z,82.79
2022-12-18T19:35:34.645Z,81.77
2022-12-18T19:38:38.079Z,82.57
2022-12-18T19:41:41.791Z,82.00
2022-12-18T19:44:48.121Z,82.27
2022-12-18T19:47:50.871Z,82.98
2022-12-18T19:50:54.358Z,80.85
2022-12-18T19:53:59.895Z,79.84
2022-12-18T19:57:07.266Z,79.24
2022-12-18T20:00:15.445Z,80.01
2022-12-18T20:03:28.688Z,80.47
2022-12-18T20:06:45.190Z,79.83
2022-12-18T20:09:48.008Z,80.46
2022-12-18T20:12:50.859Z,79.49
2022-12-18T20:15:54.393Z,79.70
2022-12-18T20:18:57.730Z,80.02
2022-12-18T20:22:01.837Z,79.71
2022-12-18T20:25:04.839Z,80.13
2022-12-18T20:28:07.686Z,80.83
2022-12-18T20:31:13.298Z,80.63
2022-12-18T20:34:17.112Z,80.96
2022-12-18T20:37:19.939Z,80.70
2022-12-18T20:40:24.271Z,80.89
2022-12-18T20:43:26.766Z,80.98
2022-12-18T20:46:29.973Z,81.66
2022-12-18T20:49:32.682Z,80.78
2022-12-18T20:52:35.666Z,79.49
2022-12-18T20:55:42.910Z,79.34
2022-12-18T20:58:45.627Z,78.72
2022-12-18T21:01:49.438Z,79.95
2022-12-18T21:04:53.435Z,78.12
2022-12-18T21:07:56.320Z,78.05
2022-12-18T21:11:40.732Z,78.06
2022-12-18T21:14:44.466Z,78.41
2022-12-18T21:17:47.246Z,77.30
2022-12-18T21:20:49.962Z,77.20
2022-12-18T21:23:52.573Z,76.72
2022-12-18T21:26:55.518Z,76.68
2022-12-18T21:29:58.281Z,77.53
2022-12-18T21:33:00.843Z,76.62
2022-12-18T21:36:07.769Z,76.67
2022-12-18T21:39:10.695Z,76.05
2022-12-18T21:42:32.339Z,75.89
2022-12-18T21:45:34.950Z,75.53
2022-12-18T21:48:40.738Z,76.50
2022-12-18T21:51:43.184Z,76.67
2022-12-18T21:54:45.857Z,74.88
2022-12-18T21:57:48.380Z,76.58
2022-12-18T22:00:51.551Z,75.61
2022-12-18T22:03:54.334Z,76.14
2022-12-18T22:06:57.583Z,76.47
2022-12-18T22:10:00.905Z,75.78
2022-12-18T22:13:07.048Z,75.39
2022-12-18T22:16:09.560Z,75.67
2022-12-18T22:19:12.568Z,75.86
2022-12-18T22:22:17.274Z,76.15
2022-12-18T22:25:20.047Z,75.78
2022-12-18T22:28:41.143Z,76.70
2022-12-18T22:31:44.078Z,75.92
2022-12-18T22:34:47.097Z,75.15
2022-12-18T22:37:49.819Z,74.85
2022-12-18T22:40:52.707Z,75.97
2022-12-18T22:43:55.740Z,76.33
2022-12-18T22:47:06.568Z,76.58
2022-12-18T22:50:13.082Z,75.31
2022-12-18T22:53:20.006Z,75.21
2022-12-18T22:56:23.226Z,74.40
2022-12-18T22:59:26.783Z,74.71
2022-12-18T23:02:29.656Z,74.33
2022-12-18T23:05:32.452Z,76.49
2022-12-18T23:08:35.545Z,76.78
2022-12-18T23:11:38.174Z,76.44
2022-12-18T23:14:41.133Z,76.55
2022-12-18T23:17:43.549Z,76.54
2022-12-18T23:20:46.576Z,76.32
2022-12-18T23:23:50.311Z,77.01
2022-12-18T23:26:53.235Z,76.73
2022-12-18T23:29:56.022Z,77.00
2022-12-18T23:33:01.218Z,77.71
2022-12-18T23:36:05.332Z,75.92
2022-12-18T23:39:08.294Z,77.32
2022-12-18T23:42:11.056Z,76.55
2022-12-18T23:45:17.989Z,76.80
2022-12-18T23:48:21.240Z,76.93
2022-12-18T23:51:26.058Z,76.79
2022-12-18T23:54:32.775Z,77.31
2022-12-18T23:57:36.663Z,76.53
